x

Stennis Test Facility (ostf1) Weather Station

4:50am - Mon 23rd Jan 2017 All times are CST. -6 hours from GMT.

  • Wind
    7mph, 16mph gusts
  • Air Temp 57°f
  • Sea Pressure 1005.3mb
  • Stennis Test Facility
  • Stennis Test Facility

More Historic Weather Station data

Upgrade to MSW Pro to gain access to the past 30 days of data for over 8000 Wavebouys and Weather Stations around the globe.

Join Pro

Comparision Forecast

View Surf forecast
   
Mon 01/23 4:50am 7 16 mph 1005.3mb 57f
3:50am 9 18 mph 1004.4mb 58f
2:50am 9 20 mph 1003.7mb 58f
1:50am 11 20 mph 1003mb 57f
12:50am 7 18 mph 1002.3mb 57f
Sun 01/22 11:50pm 9 18 mph 1002.1mb 57f
10:50pm 9 16 mph 1001.8mb 57f
9:50pm 7 18 mph 1001.5mb 56f
8:50pm 9 18 mph 1000.7mb 59f
7:50pm 2 7 mph 999.5mb 60f
6:50pm 2 9 mph 999.2mb 60f
5:50pm 4 9 mph 998.4mb 61f
4:50pm 7 13 mph 997.4mb 64f
3:50pm 9 18 mph 996.8mb 64f
2:50pm 4 11 mph 996.3mb 66f
1:50pm 9 22 mph 996.5mb 68f
12:50pm 7 18 mph 996.7mb 66f
11:50am 7 22 mph 997.7mb 63f
10:50am 4 7 mph 998.7mb 58f
9:50am 4 11 mph 1000.2mb 55f
8:50am 9 18 mph 999.3mb 60f
7:50am 9 20 mph 997.9mb 66f
6:50am 2 4 mph 998.5mb 67f
5:50am 2 4 mph 999.6mb 67f
4:50am  -  4 mph 998.8mb 68f
3:50am 2 4 mph 999.9mb 69f
2:50am 2 7 mph 1000.1mb 70f
1:50am  -  mph 999.2mb 69f
12:50am 4 7 mph 999mb 70f
Sat 01/21 11:50pm 2 9 mph 999.9mb 71f
10:50pm 4 9 mph 1000.1mb 72f
9:50pm 7 11 mph 1000.2mb 72f
8:50pm 9 16 mph 999.5mb 72f
7:50pm 4 9 mph 999.6mb 71f
6:50pm  -  4 mph 1000.1mb 65f
5:50pm 7 27 mph 1001.3mb 67f
4:50pm 2 4 mph 1001.3mb 68f
3:50pm 2 7 mph 1001.9mb 68f
2:50pm 2 7 mph 1002.9mb 69f
1:50pm 4 9 mph 1004.1mb 71f
11:50am 4 7 mph 1006mb 73f
10:50am 2 7 mph 1007.7mb 69f
9:50am 2 16 mph 1007.9mb 64f
8:50am 2 9 mph 1006.5mb 60f
7:50am  -  2 mph 1007.6mb 60f
6:50am 2 7 mph 1008.8mb 59f
5:50am 9 18 mph 1006.1mb 72f
4:50am 9 16 mph 1005.4mb 72f
3:50am 9 16 mph 1005mb 71f
2:50am 11 20 mph 1005.2mb 71f
1:50am 7 11 mph 1006.2mb 70f
12:50am 4 9 mph 1007.5mb 69f
Fri 01/20 11:50pm 2 4 mph 1008.8mb 69f
10:50pm 4 7 mph 1009.4mb 69f
9:50pm 4 9 mph 1009.8mb 69f
8:50pm 2 7 mph 1009.5mb 70f
7:50pm 2 4 mph 1009.3mb 69f
6:50pm 2 7 mph 1009.2mb 70f
5:50pm  -  2 mph 1008.8mb 71f
4:50pm 2 7 mph 1009mb 73f
3:50pm 7 11 mph 1009.2mb 75f
2:50pm 4 11 mph 1009mb 78f
1:50pm 7 13 mph 1009.2mb 78f
12:50pm 4 9 mph 1009.5mb 77f
11:50am 7 11 mph 1011mb 76f
10:50am 7 13 mph 1011.5mb 75f
9:50am 4 11 mph 1011.9mb 71f
8:50am 2 4 mph 1011.6mb 67f
7:50am  -  2 mph 1011.1mb 65f
6:50am 2 4 mph 1010.6mb 65f
5:50am 2 4 mph 1010mb 65f
4:50am 2 7 mph 1009.5mb 64f
3:50am  -  mph 1009.7mb 63f
2:50am  -  2 mph 1009.9mb 64f
1:50am 2 4 mph 1010.3mb 64f
12:50am  -  2 mph 1010.6mb 62f
Thu 01/19 11:50pm  -  mph 1010.7mb 61f
10:50pm  -  mph 1010.8mb 61f
9:50pm  -  mph 1010.6mb 62f
8:50pm  -  2 mph 1010.1mb 64f
7:50pm 2 4 mph 1009.8mb 65f
6:50pm 2 4 mph 1009.6mb 65f
5:50pm 2 4 mph 1010.2mb 66f
4:50pm  -  2 mph 1010.1mb 67f
3:50pm 2 9 mph 1009.7mb 67f
2:50pm 9 18 mph 1009.4mb 71f
1:50pm 9 13 mph 1010.4mb 73f
12:50pm 9 18 mph 1012mb 74f